createdAt,value
2022-08-07T00:01:44.540Z,102218.91
2022-08-07T00:04:05.383Z,102215.53
2022-08-07T00:06:33.873Z,102214.56
2022-08-07T00:09:16.799Z,102214.28
2022-08-07T00:11:54.078Z,102205.78
2022-08-07T00:14:30.594Z,102205.78
2022-08-07T00:16:59.768Z,102202.69
2022-08-07T00:19:59.873Z,102207.34
2022-08-07T00:22:24.718Z,102208.91
2022-08-07T00:25:16.735Z,102218.97
2022-08-07T00:27:52.580Z,102219.63
2022-08-07T00:30:27.798Z,102217.59
2022-08-07T00:32:59.410Z,102217.00
2022-08-07T00:35:26.817Z,102209.25
2022-08-07T00:37:56.815Z,102220.97
2022-08-07T00:40:36.216Z,102220.13
2022-08-07T00:43:09.658Z,102212.13
2022-08-07T00:45:39.030Z,102208.72
2022-08-07T00:48:09.181Z,102209.00
2022-08-07T00:50:50.260Z,102203.41
2022-08-07T00:53:20.271Z,102209.25
2022-08-07T00:56:00.409Z,102206.72
2022-08-07T00:58:30.673Z,102200.19
2022-08-07T01:00:58.800Z,102206.19
2022-08-07T01:03:56.380Z,102200.56
2022-08-07T01:06:12.927Z,102205.47
2022-08-07T01:08:46.524Z,102204.88
2022-08-07T01:12:11.064Z,102212.66
2022-08-07T01:14:07.827Z,102205.97
2022-08-07T01:16:39.439Z,102195.47
2022-08-07T01:19:14.778Z,102206.56
2022-08-07T01:21:46.110Z,102217.91
2022-08-07T01:24:13.570Z,102212.41
2022-08-07T01:26:40.483Z,102216.13
2022-08-07T01:29:07.407Z,102215.66
2022-08-07T01:31:42.436Z,102213.63
2022-08-07T01:34:09.766Z,102215.28
2022-08-07T01:36:40.671Z,102208.13
2022-08-07T01:39:10.098Z,102207.03
2022-08-07T01:41:40.727Z,102207.03
2022-08-07T01:44:22.088Z,102211.84
2022-08-07T01:46:50.465Z,102216.13
2022-08-07T01:49:17.352Z,102214.22
2022-08-07T01:52:01.522Z,102221.72
2022-08-07T01:54:33.299Z,102212.03
2022-08-07T01:57:25.169Z,102209.88
2022-08-07T01:59:57.566Z,102220.16
2022-08-07T02:03:12.059Z,102217.19
2022-08-07T02:05:43.344Z,102214.44
2022-08-07T02:08:13.901Z,102206.44
2022-08-07T02:10:42.229Z,102223.28
2022-08-07T02:13:09.459Z,102227.94
2022-08-07T02:15:36.687Z,102229.38
2022-08-07T02:18:04.167Z,102224.34
2022-08-07T02:20:36.705Z,102219.19
2022-08-07T02:23:05.847Z,102226.16
2022-08-07T02:26:31.473Z,102216.84
2022-08-07T02:28:25.424Z,102219.56
2022-08-07T02:30:54.429Z,102218.59
2022-08-07T02:33:21.448Z,102223.47
2022-08-07T02:36:29.408Z,102225.25
2022-08-07T02:38:37.307Z,102219.63
2022-08-07T02:41:04.508Z,102232.75
2022-08-07T02:43:31.490Z,102232.53
2022-08-07T02:46:01.869Z,102230.03
2022-08-07T02:48:30.471Z,102226.44
2022-08-07T02:50:57.930Z,102230.50
2022-08-07T02:53:29.217Z,102225.38
2022-08-07T02:56:03.056Z,102217.13
2022-08-07T02:58:33.379Z,102223.34
2022-08-07T03:01:00.752Z,102224.78
2022-08-07T03:03:29.618Z,102224.66
2022-08-07T03:06:25.950Z,102219.28
2022-08-07T03:09:01.027Z,102222.16
2022-08-07T03:11:28.227Z,102212.28
2022-08-07T03:13:57.534Z,102220.41
2022-08-07T03:16:28.989Z,102216.34
2022-08-07T03:18:58.450Z,102216.72
2022-08-07T03:21:25.689Z,102224.72
2022-08-07T03:24:20.499Z,102217.00
2022-08-07T03:26:51.002Z,102215.41
2022-08-07T03:29:24.636Z,102219.81
2022-08-07T03:31:54.527Z,102222.69
2022-08-07T03:34:22.981Z,102220.16
2022-08-07T03:36:54.694Z,102218.81
2022-08-07T03:39:46.190Z,102225.59
2022-08-07T03:42:08.480Z,102229.38
2022-08-07T03:44:36.451Z,102223.59
2022-08-07T03:47:13.345Z,102230.34
2022-08-07T03:49:47.818Z,102225.22
2022-08-07T03:52:26.583Z,102212.63
2022-08-07T03:55:06.858Z,102232.97
2022-08-07T03:58:34.731Z,102232.69
2022-08-07T04:00:29.194Z,102232.88
2022-08-07T04:02:59.636Z,102225.97
2022-08-07T04:05:40.375Z,102230.28
2022-08-07T04:08:11.035Z,102226.78
2022-08-07T04:10:39.021Z,102234.84
2022-08-07T04:13:15.276Z,102233.44
2022-08-07T04:15:42.808Z,102229.22
2022-08-07T04:18:57.825Z,102245.91
2022-08-07T04:21:00.075Z,102241.75
2022-08-07T04:23:43.399Z,102238.84
2022-08-07T04:26:16.974Z,102238.41
2022-08-07T04:28:49.051Z,102239.56
2022-08-07T04:31:20.109Z,102246.50
2022-08-07T04:33:47.348Z,102245.31
2022-08-07T04:36:26.036Z,102238.53
2022-08-07T04:38:53.325Z,102241.88
2022-08-07T04:41:20.809Z,102232.59
2022-08-07T04:44:12.022Z,102240.38
2022-08-07T04:47:04.704Z,102238.28
2022-08-07T04:49:57.916Z,102237.84
2022-08-07T04:53:08.247Z,102247.16
2022-08-07T04:58:16.823Z,102241.03
2022-08-07T05:02:01.412Z,102253.31
2022-08-07T05:04:30.890Z,102250.13
2022-08-07T05:07:20.266Z,102252.50
2022-08-07T05:10:14.269Z,102250.56
2022-08-07T05:12:51.548Z,102248.06
2022-08-07T05:15:24.968Z,102255.16
2022-08-07T05:17:55.733Z,102264.03
2022-08-07T05:20:42.911Z,102266.56
2022-08-07T05:23:42.654Z,102267.00
2022-08-07T05:26:18.807Z,102261.75
2022-08-07T05:28:53.749Z,102269.13
2022-08-07T05:31:23.982Z,102269.53
2022-08-07T05:34:05.509Z,102263.13
2022-08-07T05:36:39.103Z,102267.28
2022-08-07T05:39:09.134Z,102268.91
2022-08-07T05:42:00.616Z,102269.44
2022-08-07T05:44:31.030Z,102274.25
2022-08-07T05:46:58.127Z,102271.91
2022-08-07T05:49:28.025Z,102278.03
2022-08-07T05:52:08.528Z,102275.41
2022-08-07T05:54:44.486Z,102278.81
2022-08-07T05:57:22.510Z,102275.97
2022-08-07T05:59:56.112Z,102286.50
2022-08-07T06:02:28.595Z,102273.19
2022-08-07T06:04:58.190Z,102277.72
2022-08-07T06:08:13.109Z,102274.59
2022-08-07T06:10:15.279Z,102268.97
2022-08-07T06:12:42.448Z,102273.41
2022-08-07T06:15:10.067Z,102274.00
2022-08-07T06:17:53.714Z,102273.59
2022-08-07T06:20:49.485Z,102270.19
2022-08-07T06:23:46.003Z,102272.88
2022-08-07T06:25:59.592Z,102285.81
2022-08-07T06:28:28.444Z,102283.69
2022-08-07T06:30:55.931Z,102287.13
2022-08-07T06:33:22.952Z,102287.81
2022-08-07T06:36:11.956Z,102292.22
2022-08-07T06:38:36.770Z,102296.13
2022-08-07T06:41:09.810Z,102287.63
2022-08-07T06:43:46.101Z,102287.31
2022-08-07T06:46:14.386Z,102291.69
2022-08-07T06:48:44.421Z,102290.06
2022-08-07T06:51:15.992Z,102297.59
2022-08-07T06:55:28.605Z,102298.75
2022-08-07T06:56:50.887Z,102293.66
2022-08-07T07:00:14.489Z,102296.56
2022-08-07T07:02:09.456Z,102298.97
2022-08-07T07:04:38.362Z,102295.09
2022-08-07T07:07:19.469Z,102292.41
2022-08-07T07:09:57.530Z,102290.94
2022-08-07T07:12:48.677Z,102284.97
2022-08-07T07:15:24.027Z,102292.72
2022-08-07T07:18:11.469Z,102288.22
2022-08-07T07:20:40.227Z,102276.91
2022-08-07T07:24:08.227Z,102285.38
2022-08-07T07:26:32.813Z,102282.66
2022-08-07T07:29:39.501Z,102289.06
2022-08-07T07:31:47.363Z,102286.22
2022-08-07T07:34:19.008Z,102280.69
2022-08-07T07:36:47.967Z,102272.78
2022-08-07T07:39:20.102Z,102273.91
2022-08-07T07:42:02.058Z,102275.75
2022-08-07T07:44:39.867Z,102277.41
2022-08-07T07:47:14.247Z,102271.72
2022-08-07T07:50:35.901Z,102269.97
2022-08-07T07:52:37.008Z,102263.72
2022-08-07T07:55:04.466Z,102267.00
2022-08-07T07:57:52.104Z,102266.91
2022-08-07T08:00:29.136Z,102267.84
2022-08-07T08:03:04.817Z,102270.19
2022-08-07T08:05:51.017Z,102267.34
2022-08-07T08:08:36.347Z,102281.34
2022-08-07T08:11:13.640Z,102269.84
2022-08-07T08:13:52.885Z,102274.06
2022-08-07T08:16:25.270Z,102268.03
2022-08-07T08:18:52.870Z,102271.81
2022-08-07T08:22:00.735Z,102274.59
2022-08-07T08:24:45.849Z,102264.16
2022-08-07T08:27:16.604Z,102263.94
2022-08-07T08:29:54.547Z,102266.72
2022-08-07T08:32:25.613Z,102259.97
2022-08-07T08:35:07.657Z,102268.03
2022-08-07T08:38:00.605Z,102268.84
2022-08-07T08:40:32.190Z,102276.50
2022-08-07T08:43:15.931Z,102279.91
2022-08-07T08:46:00.546Z,102272.19
2022-08-07T08:48:38.478Z,102266.16
2022-08-07T08:52:01.109Z,102273.28
2022-08-07T08:54:25.776Z,102263.16
2022-08-07T08:56:53.767Z,102275.63
2022-08-07T08:59:42.034Z,102275.13
2022-08-07T09:02:40.424Z,102283.66
2022-08-07T09:05:36.951Z,102287.59
2022-08-07T09:08:29.754Z,102278.50
2022-08-07T09:11:08.292Z,102289.44
2022-08-07T09:14:13.130Z,102284.69
2022-08-07T09:17:07.932Z,102279.97
2022-08-07T09:20:35.228Z,102276.84
2022-08-07T09:24:33.795Z,102287.84
2022-08-07T09:25:58.811Z,102285.16
2022-08-07T09:30:03.128Z,102292.09
2022-08-07T09:31:38.448Z,102270.47
2022-08-07T09:34:15.954Z,102293.44
2022-08-07T09:37:03.857Z,102285.41
2022-08-07T09:39:59.806Z,102284.28
2022-08-07T09:42:50.368Z,102279.81
2022-08-07T09:47:51.887Z,102282.06
2022-08-07T09:48:30.076Z,102280.88
2022-08-07T09:52:09.745Z,102273.34
2022-08-07T09:54:04.021Z,102272.94
2022-08-07T09:56:50.156Z,102272.56
2022-08-07T09:59:46.248Z,102262.91
2022-08-07T10:02:55.020Z,102261.19
2022-08-07T10:06:01.214Z,102267.00
2022-08-07T10:08:41.667Z,102259.09
2022-08-07T10:12:02.505Z,102251.72
2022-08-07T10:14:32.381Z,102244.91
2022-08-07T10:17:17.830Z,102246.88
2022-08-07T10:20:01.535Z,102241.53
2022-08-07T10:23:07.614Z,102235.59
2022-08-07T10:25:53.222Z,102232.69
2022-08-07T10:28:55.111Z,102227.00
2022-08-07T10:31:21.963Z,102227.59
2022-08-07T10:34:31.804Z,102238.28
2022-08-07T10:37:17.887Z,102232.16
2022-08-07T10:40:05.516Z,102232.59
2022-08-07T10:42:43.338Z,102240.69
2022-08-07T10:45:45.349Z,102242.84
2022-08-07T10:48:34.749Z,102246.66
2022-08-07T10:51:16.297Z,102247.03
2022-08-07T10:54:00.241Z,102249.00
2022-08-07T10:56:33.210Z,102245.47
2022-08-07T10:59:24.604Z,102247.81
2022-08-07T11:02:33.116Z,102249.72
2022-08-07T11:05:19.449Z,102250.25
2022-08-07T11:08:02.583Z,102238.59
2022-08-07T11:10:32.292Z,102233.72
2022-08-07T11:14:42.291Z,102234.97
2022-08-07T11:16:41.109Z,102223.66
2022-08-07T11:19:29.751Z,102227.94
2022-08-07T11:22:26.642Z,102233.19
2022-08-07T11:25:11.587Z,102224.75
2022-08-07T11:28:04.373Z,102227.47
2022-08-07T11:30:55.951Z,102233.00
2022-08-07T11:33:59.580Z,102227.94
2022-08-07T11:37:00.363Z,102234.16
2022-08-07T11:39:59.993Z,102225.75
2022-08-07T11:42:49.965Z,102231.41
2022-08-07T11:45:35.303Z,102228.88
2022-08-07T11:48:29.740Z,102231.69
2022-08-07T11:51:44.476Z,102224.44
2022-08-07T11:54:37.108Z,102225.72
2022-08-07T11:58:00.226Z,102223.56
2022-08-07T12:00:39.092Z,102215.78
2022-08-07T12:03:46.383Z,102221.72
2022-08-07T12:06:39.086Z,102223.66
2022-08-07T12:09:23.638Z,102215.81
2022-08-07T12:12:12.077Z,102225.09
2022-08-07T12:15:17.010Z,102216.69
2022-08-07T12:18:29.628Z,102221.78
2022-08-07T12:22:36.250Z,102224.72
2022-08-07T12:24:38.574Z,102219.38
2022-08-07T12:27:14.870Z,102208.28
2022-08-07T12:29:57.686Z,102203.97
2022-08-07T12:32:30.826Z,102203.94
2022-08-07T12:34:58.355Z,102199.19
2022-08-07T12:37:28.425Z,102210.16
2022-08-07T12:40:36.158Z,102204.44
2022-08-07T12:43:01.946Z,102213.75
2022-08-07T12:45:55.295Z,102219.56
2022-08-07T12:48:55.202Z,102208.41
2022-08-07T12:51:46.622Z,102210.59
2022-08-07T12:54:37.441Z,102212.19
2022-08-07T12:57:09.797Z,102196.59
2022-08-07T12:59:54.235Z,102200.09
2022-08-07T13:02:49.417Z,102211.19
2022-08-07T13:06:02.519Z,102218.28
2022-08-07T13:08:24.849Z,102212.03
2022-08-07T13:11:14.235Z,102209.53
2022-08-07T13:14:20.407Z,102206.47
2022-08-07T13:17:21.324Z,102203.03
2022-08-07T13:19:52.813Z,102211.31
2022-08-07T13:22:58.510Z,102205.09
2022-08-07T13:25:54.162Z,102201.03
2022-08-07T13:28:38.297Z,102206.22
2022-08-07T13:31:13.109Z,102203.44
2022-08-07T13:34:34.509Z,102211.88
2022-08-07T13:36:58.007Z,102201.56
2022-08-07T13:40:33.543Z,102195.94
2022-08-07T13:42:27.089Z,102190.41
2022-08-07T13:44:55.312Z,102190.78
2022-08-07T13:48:06.411Z,102194.22
2022-08-07T13:50:34.004Z,102188.34
2022-08-07T13:53:14.536Z,102190.16
2022-08-07T13:55:54.411Z,102189.06
2022-08-07T13:58:41.968Z,102180.50
2022-08-07T14:01:23.174Z,102193.53
2022-08-07T14:04:09.595Z,102189.88
2022-08-07T14:06:39.530Z,102183.44
2022-08-07T14:09:07.467Z,102189.88
2022-08-07T14:11:53.458Z,102190.50
2022-08-07T14:14:49.058Z,102191.06
2022-08-07T14:18:12.196Z,102188.44
2022-08-07T14:20:43.262Z,102195.78
2022-08-07T14:23:31.741Z,102197.94
2022-08-07T14:26:08.442Z,102192.38
2022-08-07T14:28:57.454Z,102198.06
2022-08-07T14:31:24.168Z,102197.06
2022-08-07T14:33:52.748Z,102190.84
2022-08-07T14:36:20.993Z,102186.25
2022-08-07T14:38:51.447Z,102189.81
2022-08-07T14:41:33.872Z,102190.41
2022-08-07T14:44:16.299Z,102169.78
2022-08-07T14:46:51.898Z,102186.28
2022-08-07T14:49:57.582Z,102183.44
2022-08-07T14:52:24.496Z,102181.09
2022-08-07T14:54:54.846Z,102186.16
2022-08-07T14:57:21.989Z,102186.41
2022-08-07T15:00:06.220Z,102193.84
2022-08-07T15:02:35.136Z,102195.31
2022-08-07T15:05:04.431Z,102192.75
2022-08-07T15:07:50.893Z,102198.44
2022-08-07T15:10:20.290Z,102204.28
2022-08-07T15:12:58.191Z,102189.97
2022-08-07T15:15:38.585Z,102197.78
2022-08-07T15:18:28.240Z,102191.72
2022-08-07T15:20:59.350Z,102190.34
2022-08-07T15:25:13.965Z,102187.03
2022-08-07T15:26:22.499Z,102185.47
2022-08-07T15:32:00.619Z,102180.06
2022-08-07T15:38:04.297Z,102181.06
2022-08-07T15:40:36.867Z,102181.34
2022-08-07T15:43:53.605Z,102171.84
2022-08-07T15:49:14.454Z,102181.00
2022-08-07T15:54:34.215Z,102180.28
2022-08-07T15:57:02.318Z,102175.78
2022-08-07T15:59:40.053Z,102185.41
2022-08-07T16:02:15.208Z,102180.09
2022-08-07T16:04:42.588Z,102179.50
2022-08-07T16:08:30.536Z,102180.53
2022-08-07T16:10:16.369Z,102184.25
2022-08-07T16:13:04.868Z,102184.06
2022-08-07T16:16:03.495Z,102191.75
2022-08-07T16:18:49.427Z,102189.47
2022-08-07T16:21:56.757Z,102191.59
2022-08-07T16:24:33.615Z,102186.63
2022-08-07T16:27:25.229Z,102181.88
2022-08-07T16:30:30.248Z,102179.81
2022-08-07T16:34:02.073Z,102175.44
2022-08-07T16:36:04.527Z,102177.00
2022-08-07T16:39:01.025Z,102170.19
2022-08-07T16:42:06.892Z,102178.25
2022-08-07T16:45:24.674Z,102178.34
2022-08-07T16:48:13.568Z,102173.56
2022-08-07T16:51:20.730Z,102174.09
2022-08-07T16:54:06.233Z,102166.16
2022-08-07T16:56:54.827Z,102175.63
2022-08-07T16:59:47.158Z,102178.75
2022-08-07T17:02:53.065Z,102171.78
2022-08-07T17:06:28.440Z,102171.50
2022-08-07T17:08:09.493Z,102172.53
2022-08-07T17:10:54.581Z,102178.84
2022-08-07T17:14:19.418Z,102170.69
2022-08-07T17:16:43.676Z,102174.72
2022-08-07T17:20:01.131Z,102178.34
2022-08-07T17:22:17.346Z,102181.34
2022-08-07T17:25:16.771Z,102181.53
2022-08-07T17:27:57.451Z,102180.69
2022-08-07T17:30:58.540Z,102180.03
2022-08-07T17:34:10.082Z,102173.56
2022-08-07T17:36:26.161Z,102185.00
2022-08-07T17:39:15.458Z,102184.84
2022-08-07T17:42:02.409Z,102188.28
2022-08-07T17:44:45.555Z,102184.47
2022-08-07T17:47:42.765Z,102180.16
2022-08-07T17:50:22.772Z,102182.47
2022-08-07T17:53:00.626Z,102175.47
2022-08-07T17:55:55.972Z,102183.25
2022-08-07T17:59:00.792Z,102175.59
2022-08-07T18:01:39.884Z,102185.00
2022-08-07T18:04:41.896Z,102181.31
2022-08-07T18:07:24.114Z,102187.75
2022-08-07T18:10:06.691Z,102188.19
2022-08-07T18:13:11.708Z,102187.31
2022-08-07T18:16:04.815Z,102190.91
2022-08-07T18:21:01.157Z,102198.13
2022-08-07T18:22:03.582Z,102195.00
2022-08-07T18:24:52.597Z,102193.00
2022-08-07T18:27:41.186Z,102199.56
2022-08-07T18:30:32.478Z,102203.53
2022-08-07T18:33:33.987Z,102199.16
2022-08-07T18:36:32.697Z,102199.31
2022-08-07T18:40:08.173Z,102209.31
2022-08-07T18:42:21.678Z,102190.09
2022-08-07T18:45:43.179Z,102211.88
2022-08-07T18:48:09.028Z,102210.28
2022-08-07T18:50:47.300Z,102217.88
2022-08-07T18:53:45.369Z,102216.84
2022-08-07T18:56:57.965Z,102226.94
2022-08-07T19:00:34.633Z,102220.06
2022-08-07T19:03:11.981Z,102224.53
2022-08-07T19:06:05.182Z,102228.84
2022-08-07T19:08:46.377Z,102224.00
2022-08-07T19:11:35.903Z,102224.13
2022-08-07T19:14:19.854Z,102219.41
2022-08-07T19:17:05.809Z,102232.19
2022-08-07T19:19:45.430Z,102230.13
2022-08-07T19:22:30.765Z,102238.31
2022-08-07T19:24:58.950Z,102228.44
2022-08-07T19:28:57.903Z,102232.69
2022-08-07T19:31:05.750Z,102226.72
2022-08-07T19:33:10.263Z,102232.56
2022-08-07T19:35:40.577Z,102231.16
2022-08-07T19:38:16.074Z,102227.97
2022-08-07T19:40:49.981Z,102236.13
2022-08-07T19:43:48.860Z,102239.88
2022-08-07T19:46:10.929Z,102234.72
2022-08-07T19:48:42.242Z,102240.13
2022-08-07T19:51:20.396Z,102243.13
2022-08-07T19:54:31.810Z,102242.25
2022-08-07T19:57:52.259Z,102246.22
2022-08-07T19:59:40.792Z,102247.56
2022-08-07T20:02:19.073Z,102256.94
2022-08-07T20:04:49.273Z,102249.53
2022-08-07T20:07:23.750Z,102257.94
2022-08-07T20:10:33.444Z,102255.94
2022-08-07T20:12:50.951Z,102256.47
2022-08-07T20:15:22.158Z,102251.75
2022-08-07T20:18:01.785Z,102258.00
2022-08-07T20:20:30.718Z,102256.81
2022-08-07T20:23:00.544Z,102256.97
2022-08-07T20:25:28.269Z,102255.41
2022-08-07T20:27:58.477Z,102259.94
2022-08-07T20:30:31.002Z,102250.53
2022-08-07T20:32:58.008Z,102244.06
2022-08-07T20:35:51.988Z,102249.59
2022-08-07T20:38:25.787Z,102246.75
2022-08-07T20:40:56.456Z,102259.66
2022-08-07T20:43:26.776Z,102258.09
2022-08-07T20:46:28.566Z,102248.34
2022-08-07T20:48:58.043Z,102259.13
2022-08-07T20:51:29.971Z,102253.16
2022-08-07T20:54:03.609Z,102244.81
2022-08-07T20:56:41.259Z,102251.34
2022-08-07T21:00:05.344Z,102260.47
2022-08-07T21:02:01.764Z,102253.63
2022-08-07T21:04:30.549Z,102263.81
2022-08-07T21:07:04.491Z,102263.22
2022-08-07T21:09:53.034Z,102261.41
2022-08-07T21:12:31.078Z,102259.72
2022-08-07T21:15:00.931Z,102265.56
2022-08-07T21:18:03.514Z,102263.78
2022-08-07T21:20:18.947Z,102265.13
2022-08-07T21:22:57.189Z,102260.34
2022-08-07T21:25:39.180Z,102263.69
2022-08-07T21:28:19.144Z,102267.03
2022-08-07T21:31:14.431Z,102267.50
2022-08-07T21:33:48.928Z,102269.81
2022-08-07T21:36:40.086Z,102266.06
2022-08-07T21:39:44.899Z,102269.81
2022-08-07T21:42:42.964Z,102275.03
2022-08-07T21:46:05.062Z,102268.34
2022-08-07T21:48:48.220Z,102271.47
2022-08-07T21:51:32.235Z,102270.03
2022-08-07T21:54:14.491Z,102261.78
2022-08-07T21:57:15.953Z,102267.88
2022-08-07T22:00:11.329Z,102270.25
2022-08-07T22:03:08.618Z,102270.38
2022-08-07T22:05:55.410Z,102271.56
2022-08-07T22:08:24.814Z,102267.38
2022-08-07T22:11:00.175Z,102269.41
2022-08-07T22:13:50.272Z,102258.97
2022-08-07T22:16:42.109Z,102274.50
2022-08-07T22:19:07.552Z,102277.03
2022-08-07T22:22:04.717Z,102269.72
2022-08-07T22:24:37.991Z,102270.19
2022-08-07T22:27:20.988Z,102272.94
2022-08-07T22:30:26.488Z,102260.50
2022-08-07T22:33:07.308Z,102268.75
2022-08-07T22:35:46.347Z,102274.03
2022-08-07T22:38:50.888Z,102276.91
2022-08-07T22:42:04.023Z,102277.50
2022-08-07T22:44:32.717Z,102272.13
2022-08-07T22:47:17.992Z,102270.38
2022-08-07T22:50:20.425Z,102264.38
2022-08-07T22:53:18.759Z,102265.34
2022-08-07T22:56:09.468Z,102264.50
2022-08-07T22:59:13.574Z,102268.34
2022-08-07T23:01:59.187Z,102262.34
2022-08-07T23:06:09.991Z,102258.97
2022-08-07T23:08:00.807Z,102250.41
2022-08-07T23:10:42.371Z,102249.88
2022-08-07T23:13:29.555Z,102257.53
2022-08-07T23:16:44.570Z,102244.78
2022-08-07T23:20:04.815Z,102244.78
2022-08-07T23:23:10.216Z,102250.13
2022-08-07T23:25:42.147Z,102251.69
2022-08-07T23:28:36.666Z,102240.94
2022-08-07T23:32:49.463Z,102249.88
2022-08-07T23:34:39.713Z,102249.88
2022-08-07T23:38:01.494Z,102248.59
2022-08-07T23:41:02.744Z,102243.72
2022-08-07T23:43:51.307Z,102249.94
2022-08-07T23:46:51.867Z,102249.59
2022-08-07T23:49:51.193Z,102239.06
2022-08-07T23:53:00.349Z,102237.31
2022-08-07T23:55:52.548Z,102242.06
2022-08-07T23:59:10.444Z,102241.34
